Heinrich Groß

Olheiro - Bayer Leverkusen
4 Jun 2028
Domingo
Processo

Personalidade

Adaptabilidade (16) Ambição (6) Controvérsia (6) Lealdade (15) Pressão (20) Profissionalismo (12) Espírito Esportivo (5) Temperamento (20)

Perfil

Estilo de Treinamento Democrático
Licença Nacional B
Determinação 12
Gestão de Pessoas 13
Motivação 11
Disciplina 13
Satisfação no Trabalho
100%
Fadiga
0%
Função Olheiro
Salário 125.0K p/s
Contrato 14.03.2029

Desempenho

Comportamento Bom
Eficácia do Treinamento
52%
Desenvolvimento do Jogador
60%
Prevenção de Lesões
80%
Implementação Tática
65%

Eventos Recentes

Avaliou um jogador agora

Monitorando agora

56
Jogador Clube Status Habilidade Confiança Observado Última observação Último voto
Pau Cubarsí Barcelona Ativo 159 / 171 40% 2 02.06.2028 -
Tylel Tati AJ Auxerre Ativo 133 / 137 40% 1 02.06.2028 -
Jens Mathijsen Willem II Ativo 111 / 113 40% 1 31.01.2028 -
Victor Froholdt Porto Ativo 145 / 149 40% 1 31.01.2028 -
Pape Diong Westerlo Ativo 125 / 132 40% 2 26.01.2028 -
Héctor Fort Real Sociedad Ativo 136 / 145 40% 1 26.01.2028 -
Jorrel Hato Chelsea Ativo 148 / 163 40% 1 25.01.2028 -
Flávio Gonçalves Sporting CP Ativo 122 / 138 40% 1 24.01.2028 -
Jaydee Canvot Crystal Palace Ativo 142 / 148 40% 2 17.01.2028 -
Bahmed Deuff FC Metz Ativo 128 / 123 40% 3 17.01.2028 -
Luka Vušković Brighton Ativo 149 / 157 40% 3 15.01.2028 -
Bazoumana Touré Newcastle United Ativo 139 / 158 40% 1 11.01.2028 -
Finn Jeltsch VfB Stuttgart Ativo 132 / 146 40% 1 09.01.2028 Mais informações
Daniel Banjaqui Benfica Ativo 113 / 136 40% 1 03.01.2028 -
John Mellberg Red Bull Salzburg Ativo 115 / 132 40% 1 31.08.2027 -
Mbekezeli Mbokazi Chicago Fire Ativo 132 / 113 40% 2 30.08.2027 -
Jonas Harder Basel Ativo 123 / 122 40% 2 30.08.2027 -
Kosta Nedeljković Aston Villa Ativo 141 / 137 40% 1 30.08.2027 -
Valentino Acuña Newell's Old Boys Ativo 117 / 127 40% 1 30.08.2027 -
Mateo Peralta Danubio Ativo 116 / 107 40% 1 26.08.2027 -
Ayden Heaven Manchester United Ativo 140 / 157 40% 1 24.08.2027 -
Rabby Nzingoula West Bromwich Albion Ativo 126 / 131 40% 3 22.08.2027 -
Damola Ajayi Tottenham Ativo 125 / 135 40% 3 22.08.2027 -
Ishé Samuels-Smith Chelsea Ativo 113 / 133 40% 4 19.08.2027 -
Sergiu Perciun Torino Ativo 102 / 112 40% 2 18.08.2027 -
Rayan Bournemouth Ativo 148 / 151 40% 4 17.08.2027 -
Mateo Aguiar Defensa y Justicia Ativo 114 / 116 40% 2 15.08.2027 -
Kauã Elias Shakhtar Ativo 125 / 147 40% 1 15.08.2027 -
Noah Streit CF Montreal Ativo 122 / 119 40% 1 12.08.2027 -
Gaku Nawata Gamba Osaka Ativo 106 / 104 40% 1 10.08.2027 -
George Abbott Tottenham Ativo 123 / 115 40% 4 09.08.2027 -
Brandon Powell Blackburn Rovers Ativo 111 / 123 40% 3 08.08.2027 -
Andrés Cuenca Como Ativo 108 / 120 40% 1 08.08.2027 -
Souza Tottenham Ativo 133 / 132 40% 3 07.08.2027 -
Alisson Shakhtar Ativo 136 / 140 40% 1 07.08.2027 -
Somto Boniface Ipswich Town Ativo 111 / 118 40% 2 02.08.2027 -
Amir Mohammad Razzaghinia Esteghlal Ativo 123 / 120 40% 1 15.07.2027 -
Morgan Dala New York Red Bulls Ativo 118 / 137 40% 3 06.07.2027 -
Niccolò Fortini Fiorentina Ativo 122 / 132 40% 1 02.07.2027 -
Samuele di Benedetto Union Berlin Ativo 108 / 110 40% 1 29.06.2027 -
Alejandro Almaraz Oviedo Ativo 112 / 128 40% 1 27.06.2027 -
Juan Cruz Cortazzo Gimnasia La Plata Ativo 106 / 99 40% 1 26.06.2027 -
Alysson Edward Aston Villa Ativo 124 / 119 40% 1 22.06.2027 -
Dylan Gorosito Boca Juniors Ativo 107 / 129 40% 2 20.06.2027 -
Matheus Gonçalves Al-Ahli Ativo 118 / 144 40% 2 11.06.2027 -
Ollie Scarles West Ham United Ativo 138 / 126 40% 1 06.06.2027 -
Josh Stephenson Brentford Ativo 106 / 110 40% 1 01.06.2027 -
Bobby Clark Derby County Ativo 129 / 133 40% 2 30.01.2027 -
Dehmaine Tabibou FC Nantes Ativo 127 / 136 40% 1 14.01.2027 -
Joaquin Seys Club Brugge Ativo 133 / 124 40% 1 14.01.2027 -
Tristan Degreef Anderlecht Ativo 125 / 129 40% 1 12.01.2027 -
Breno Bidon Corinthians Ativo 144 / 147 40% 1 07.01.2027 -
Lee Jae-Sung Mainz 05 Ativo 129 / 139 62% 1 06.01.2027 Aprovar
Mohamadou Kanté West Ham United Ativo 105 / 122 40% 1 02.01.2027 -
Vitor Roque Palmeiras Ativo 137 / 147 40% 1 31.08.2026 -
Dejan Radonjić SV Ried Ativo 114 / 108 40% 1 18.08.2026 -